VIE weather

Vienna International Airport
Vienna, Vienna, Austria

Public forecast

Using degrees Celsius for public forecast. Weather courtesy of forecast.io.

METAR (pilot weather report)

Retrieved 2018/06/18 14:20 UTC (34 minutes ago):

LOWW 181420Z 30017KT 9999 FEW050 28/10 Q1017 NOSIG

TAF (pilot weather forecast)

Retrieved 2018/06/18 15:22 UTC (0 seconds ago):

TAF LOWW 181415Z 1815/1921 32014KT CAVOK TX27/1915Z TN17/1903Z TEMPO 1815/1817 33020G30KT 9999 FEW050TCU TEMPO 1815/1818 35015KT TEMPO 1907/1917 34015KT